createdAt,value
2023-05-22T00:01:37.730Z,69.39
2023-05-22T00:04:04.806Z,69.56
2023-05-22T00:06:31.620Z,69.70
2023-05-22T00:08:58.237Z,69.73
2023-05-22T00:11:24.878Z,69.77
2023-05-22T00:13:51.648Z,69.71
2023-05-22T00:16:18.329Z,69.73
2023-05-22T00:18:45.201Z,69.82
2023-05-22T00:21:12.018Z,69.90
2023-05-22T00:23:38.727Z,69.97
2023-05-22T00:26:05.414Z,70.25
2023-05-22T00:28:32.081Z,70.54
2023-05-22T00:30:58.740Z,70.78
2023-05-22T00:33:25.436Z,70.91
2023-05-22T00:35:52.181Z,71.11
2023-05-22T00:38:35.163Z,71.23
2023-05-22T00:41:03.213Z,71.35
2023-05-22T00:43:29.975Z,71.56
2023-05-22T00:45:56.805Z,71.65
2023-05-22T00:48:23.879Z,71.76
2023-05-22T00:50:51.106Z,71.93
2023-05-22T00:53:19.642Z,72.06
2023-05-22T00:55:46.344Z,71.91
2023-05-22T00:58:19.184Z,71.86
2023-05-22T01:00:49.269Z,71.83
2023-05-22T01:03:16.071Z,72.01
2023-05-22T01:05:43.710Z,71.98
2023-05-22T01:08:10.506Z,72.03
2023-05-22T01:10:38.182Z,71.96
2023-05-22T01:13:30.676Z,71.81
2023-05-22T01:16:20.969Z,71.58
2023-05-22T01:19:18.157Z,71.74
2023-05-22T01:21:56.052Z,71.98
2023-05-22T01:24:37.328Z,72.05
2023-05-22T01:27:25.942Z,72.08
2023-05-22T01:30:11.213Z,71.95
2023-05-22T01:32:38.423Z,71.87
2023-05-22T01:35:08.447Z,71.95
2023-05-22T01:37:35.142Z,71.97
2023-05-22T01:40:01.908Z,72.15
2023-05-22T01:42:29.124Z,72.20
2023-05-22T01:44:55.808Z,72.21
2023-05-22T01:47:23.316Z,72.16
2023-05-22T01:49:51.944Z,72.05
2023-05-22T01:52:42.251Z,71.96
2023-05-22T01:55:27.576Z,71.91
2023-05-22T01:57:59.923Z,71.83
2023-05-22T02:00:26.633Z,71.84
2023-05-22T02:02:58.770Z,72.02
2023-05-22T02:05:25.597Z,71.92
2023-05-22T02:07:52.347Z,72.04
2023-05-22T02:10:19.052Z,72.14
2023-05-22T02:12:45.805Z,72.09
2023-05-22T02:15:12.726Z,72.08
2023-05-22T02:17:42.588Z,72.07
2023-05-22T02:20:15.322Z,71.97
2023-05-22T02:22:46.886Z,71.91
2023-05-22T02:25:17.684Z,71.91
2023-05-22T02:27:45.832Z,71.86
2023-05-22T02:30:13.386Z,71.76
2023-05-22T02:32:41.064Z,71.47
2023-05-22T02:35:08.336Z,71.52
2023-05-22T02:37:35.205Z,71.45
2023-05-22T02:40:02.011Z,71.54
2023-05-22T02:42:29.365Z,71.82
2023-05-22T02:44:56.095Z,72.02
2023-05-22T02:47:22.766Z,71.66
2023-05-22T02:49:49.446Z,70.69
2023-05-22T02:52:16.264Z,69.26
2023-05-22T02:54:43.014Z,67.46
2023-05-22T02:57:09.784Z,65.91
2023-05-22T02:59:36.877Z,64.87
2023-05-22T03:02:03.885Z,63.84
2023-05-22T03:04:30.735Z,62.50
2023-05-22T03:06:57.439Z,61.19
2023-05-22T03:09:25.193Z,59.72
2023-05-22T03:11:51.890Z,58.16
2023-05-22T03:14:18.597Z,56.64
2023-05-22T03:16:45.370Z,55.37
2023-05-22T03:19:13.492Z,53.88
2023-05-22T03:21:40.841Z,52.25
2023-05-22T03:24:08.068Z,50.89
2023-05-22T03:26:34.767Z,49.63
2023-05-22T03:29:03.245Z,48.43
2023-05-22T03:31:33.234Z,47.36
2023-05-22T03:34:11.431Z,46.63
2023-05-22T03:36:38.378Z,46.51
2023-05-22T03:39:05.362Z,46.54
2023-05-22T03:41:35.115Z,46.58
2023-05-22T03:44:03.140Z,46.63
2023-05-22T03:46:29.993Z,46.52
2023-05-22T03:48:56.796Z,46.31
2023-05-22T03:51:24.467Z,46.19
2023-05-22T03:53:51.083Z,46.06
2023-05-22T03:56:17.903Z,45.58
2023-05-22T03:58:47.656Z,45.52
2023-05-22T04:01:14.313Z,45.55
2023-05-22T04:03:41.209Z,46.16
2023-05-22T04:06:07.876Z,46.71
2023-05-22T04:08:34.771Z,47.07
2023-05-22T04:11:01.535Z,47.68
2023-05-22T04:13:28.733Z,48.10
2023-05-22T04:15:56.848Z,48.23
2023-05-22T04:18:23.688Z,48.07
2023-05-22T04:20:51.868Z,47.91
2023-05-22T04:23:18.906Z,47.16
2023-05-22T04:25:48.161Z,46.90
2023-05-22T04:28:17.571Z,45.98
2023-05-22T04:30:46.291Z,45.17
2023-05-22T04:33:13.694Z,44.41
2023-05-22T04:35:43.017Z,43.49
2023-05-22T04:38:09.740Z,42.27
2023-05-22T04:40:38.027Z,40.61
2023-05-22T04:43:05.134Z,38.99
2023-05-22T04:45:32.997Z,37.66
2023-05-22T04:48:02.596Z,35.53
2023-05-22T04:50:32.640Z,33.28
2023-05-22T04:52:59.949Z,32.13
2023-05-22T04:55:26.781Z,29.76
2023-05-22T04:57:53.686Z,28.39
2023-05-22T05:00:26.259Z,27.51
2023-05-22T05:02:53.640Z,26.51
2023-05-22T05:05:20.635Z,25.21
2023-05-22T05:07:50.096Z,24.71
2023-05-22T05:10:17.376Z,24.90
2023-05-22T05:12:44.093Z,24.52
2023-05-22T05:15:10.917Z,24.13
2023-05-22T05:17:37.776Z,23.63
2023-05-22T05:20:07.151Z,23.23
2023-05-22T05:22:33.974Z,22.59
2023-05-22T05:25:01.966Z,22.15
2023-05-22T05:27:29.056Z,21.76
2023-05-22T05:29:56.279Z,21.79
2023-05-22T05:32:27.590Z,21.64
2023-05-22T05:35:02.387Z,20.94
2023-05-22T05:37:41.846Z,20.19
2023-05-22T05:40:09.840Z,20.29
2023-05-22T05:42:40.443Z,21.09
2023-05-22T05:45:09.598Z,21.33
2023-05-22T05:47:36.406Z,21.13
2023-05-22T05:50:03.410Z,22.11
2023-05-22T05:52:32.773Z,23.05
2023-05-22T05:55:01.878Z,22.97
2023-05-22T05:57:29.845Z,23.34
2023-05-22T05:59:57.110Z,23.82
2023-05-22T06:02:42.064Z,24.20
2023-05-22T06:05:19.509Z,24.36
2023-05-22T06:07:48.299Z,24.39
2023-05-22T06:10:15.556Z,24.47
2023-05-22T06:12:55.277Z,24.72
2023-05-22T06:15:21.999Z,24.86
2023-05-22T06:17:48.709Z,25.52
2023-05-22T06:20:15.689Z,26.15
2023-05-22T06:22:42.477Z,26.89
2023-05-22T06:25:10.013Z,27.32
2023-05-22T06:27:37.256Z,27.96
2023-05-22T06:30:05.726Z,28.52
2023-05-22T06:32:35.830Z,29.13
2023-05-22T06:35:03.473Z,29.56
2023-05-22T06:37:33.038Z,29.62
2023-05-22T06:40:00.986Z,29.26
2023-05-22T06:42:33.015Z,29.13
2023-05-22T06:45:37.423Z,29.58
2023-05-22T06:48:34.208Z,29.23
2023-05-22T06:51:30.134Z,29.36
2023-05-22T06:54:06.900Z,29.27
2023-05-22T06:56:35.417Z,29.42
2023-05-22T06:59:06.227Z,29.26
2023-05-22T07:01:56.292Z,29.15
2023-05-22T07:04:32.836Z,29.46
2023-05-22T07:07:02.007Z,29.35
2023-05-22T07:09:29.289Z,29.02
2023-05-22T07:11:56.000Z,29.20
2023-05-22T07:14:22.926Z,28.85
2023-05-22T07:16:50.454Z,28.95
2023-05-22T07:19:21.406Z,29.05
2023-05-22T07:21:48.248Z,28.78
2023-05-22T07:24:16.811Z,28.20
2023-05-22T07:26:46.808Z,27.89
2023-05-22T07:29:16.892Z,28.05
2023-05-22T07:31:45.575Z,28.68
2023-05-22T07:34:12.296Z,28.45
2023-05-22T07:36:39.126Z,28.88
2023-05-22T07:39:06.816Z,28.54
2023-05-22T07:41:36.090Z,28.80
2023-05-22T07:44:03.289Z,28.63
2023-05-22T07:46:32.584Z,28.62
2023-05-22T07:49:07.198Z,28.49
2023-05-22T07:51:34.709Z,28.96
2023-05-22T07:54:01.577Z,29.25
2023-05-22T07:56:28.402Z,28.67
2023-05-22T07:58:55.594Z,27.86
2023-05-22T08:01:23.537Z,27.29
2023-05-22T08:03:50.750Z,27.15
2023-05-22T08:06:17.915Z,26.24
2023-05-22T08:08:44.640Z,27.00
2023-05-22T08:11:11.500Z,27.08
2023-05-22T08:13:38.757Z,28.02
2023-05-22T08:16:06.405Z,28.70
2023-05-22T08:18:33.381Z,27.75
2023-05-22T08:21:00.816Z,27.66
2023-05-22T08:23:27.595Z,27.36
2023-05-22T08:25:54.292Z,26.94
2023-05-22T08:28:21.053Z,26.90
2023-05-22T08:30:47.748Z,26.47
2023-05-22T08:33:14.545Z,25.49
2023-05-22T08:35:41.348Z,25.99
2023-05-22T08:38:07.954Z,26.24
2023-05-22T08:40:39.515Z,26.43
2023-05-22T08:43:06.647Z,26.33
2023-05-22T08:45:34.250Z,26.66
2023-05-22T08:48:07.597Z,26.30
2023-05-22T08:50:37.025Z,26.28
2023-05-22T08:53:03.765Z,25.93
2023-05-22T08:55:30.662Z,25.88
2023-05-22T08:57:57.476Z,26.51
2023-05-22T09:00:24.214Z,26.55
2023-05-22T09:02:51.030Z,26.54
2023-05-22T09:05:18.038Z,26.19
2023-05-22T09:07:45.145Z,25.78
2023-05-22T09:10:11.800Z,25.25
2023-05-22T09:12:38.575Z,25.11
2023-05-22T09:15:11.870Z,24.39
2023-05-22T09:17:39.982Z,24.26
2023-05-22T09:20:07.549Z,25.18
2023-05-22T09:22:40.431Z,24.68
2023-05-22T09:25:07.858Z,24.85
2023-05-22T09:27:34.737Z,24.55
2023-05-22T09:30:01.427Z,25.31
2023-05-22T09:32:31.350Z,24.80
2023-05-22T09:35:04.886Z,25.16
2023-05-22T09:37:37.671Z,24.59
2023-05-22T09:40:08.601Z,25.15
2023-05-22T09:42:35.396Z,24.30
2023-05-22T09:45:08.516Z,24.79
2023-05-22T09:47:35.338Z,24.80
2023-05-22T09:50:07.256Z,24.02
2023-05-22T09:52:35.022Z,24.09
2023-05-22T09:55:08.855Z,24.66
2023-05-22T09:57:45.113Z,24.67
2023-05-22T10:00:15.017Z,24.31
2023-05-22T10:02:44.304Z,24.32
2023-05-22T10:05:11.094Z,24.37
2023-05-22T10:07:47.881Z,24.47
2023-05-22T10:10:14.773Z,24.68
2023-05-22T10:12:58.164Z,24.95
2023-05-22T10:15:25.077Z,24.51
2023-05-22T10:17:51.935Z,24.53
2023-05-22T10:20:19.199Z,24.43
2023-05-22T10:22:46.570Z,24.32
2023-05-22T10:25:13.367Z,24.26
2023-05-22T10:27:40.204Z,24.50
2023-05-22T10:30:29.578Z,24.79
2023-05-22T10:33:19.697Z,24.34
2023-05-22T10:36:06.891Z,24.41
2023-05-22T10:38:58.221Z,24.63
2023-05-22T10:41:24.960Z,24.24
2023-05-22T10:43:51.897Z,24.53
2023-05-22T10:46:18.874Z,24.53
2023-05-22T10:48:47.009Z,24.35
2023-05-22T10:51:14.708Z,24.05
2023-05-22T10:53:42.982Z,24.19
2023-05-22T10:56:13.770Z,23.88
2023-05-22T10:58:42.724Z,24.40
2023-05-22T11:01:15.910Z,24.74
2023-05-22T11:04:01.308Z,25.10
2023-05-22T11:06:34.087Z,25.72
2023-05-22T11:09:19.877Z,26.14
2023-05-22T11:11:46.883Z,25.45
2023-05-22T11:14:16.369Z,24.77
2023-05-22T11:16:43.099Z,24.90
2023-05-22T11:19:22.837Z,25.17
2023-05-22T11:21:50.244Z,24.37
2023-05-22T11:24:18.258Z,23.88
2023-05-22T11:26:45.235Z,23.67
2023-05-22T11:29:11.979Z,23.65
2023-05-22T11:31:38.878Z,22.58
2023-05-22T11:34:05.781Z,22.76
2023-05-22T11:36:32.517Z,23.40
2023-05-22T11:39:00.075Z,23.11
2023-05-22T11:41:33.206Z,23.04
2023-05-22T11:44:01.600Z,23.20
2023-05-22T11:46:30.450Z,23.60
2023-05-22T11:48:57.242Z,23.77
2023-05-22T11:51:23.948Z,23.59
2023-05-22T11:53:51.080Z,23.25
2023-05-22T11:56:23.040Z,22.93
2023-05-22T11:58:50.700Z,22.50
2023-05-22T12:01:17.998Z,22.64
2023-05-22T12:03:45.307Z,22.95
2023-05-22T12:06:14.544Z,22.55
2023-05-22T12:08:44.063Z,22.64
2023-05-22T12:12:22.692Z,22.98
2023-05-22T12:14:51.165Z,22.69
2023-05-22T12:17:18.588Z,22.88
2023-05-22T12:19:47.336Z,22.34
2023-05-22T12:22:14.641Z,22.17
2023-05-22T12:24:42.593Z,22.01
2023-05-22T12:27:12.722Z,21.81
2023-05-22T12:29:40.037Z,21.91
2023-05-22T12:32:08.721Z,21.61
2023-05-22T12:34:36.082Z,21.76
2023-05-22T12:37:03.272Z,22.02
2023-05-22T12:39:30.589Z,22.25
2023-05-22T12:41:57.797Z,21.85
2023-05-22T12:44:26.105Z,21.95
2023-05-22T12:46:53.442Z,21.69
2023-05-22T12:49:20.917Z,22.28
2023-05-22T12:51:48.181Z,22.38
2023-05-22T12:54:15.529Z,22.35
2023-05-22T12:56:42.746Z,22.28
2023-05-22T12:59:10.075Z,22.65
2023-05-22T13:01:37.438Z,22.09
2023-05-22T13:04:04.989Z,21.79
2023-05-22T13:06:32.370Z,21.73
2023-05-22T13:08:59.792Z,21.49
2023-05-22T13:11:27.349Z,21.86
2023-05-22T13:13:54.769Z,22.31
2023-05-22T13:16:22.081Z,22.29
2023-05-22T13:18:49.432Z,22.36
2023-05-22T13:21:16.714Z,22.86
2023-05-22T13:23:43.917Z,23.10
2023-05-22T13:26:11.318Z,23.11
2023-05-22T13:28:38.633Z,23.14
2023-05-22T13:31:06.055Z,23.16
2023-05-22T13:33:33.458Z,23.42
2023-05-22T13:36:01.166Z,23.88
2023-05-22T13:38:28.384Z,23.59
2023-05-22T13:40:55.785Z,23.34
2023-05-22T13:43:23.160Z,22.94
2023-05-22T13:45:50.452Z,22.89
2023-05-22T13:48:18.044Z,22.78
2023-05-22T13:50:45.499Z,22.89
2023-05-22T13:53:12.704Z,23.06
2023-05-22T13:55:40.105Z,22.62
2023-05-22T13:58:07.525Z,22.27
2023-05-22T14:00:34.726Z,22.82
2023-05-22T14:03:02.005Z,22.91
2023-05-22T14:05:29.331Z,22.59
2023-05-22T14:07:56.817Z,22.30
2023-05-22T14:10:24.014Z,22.88
2023-05-22T14:12:51.422Z,22.64
2023-05-22T14:15:18.701Z,22.64
2023-05-22T14:17:46.724Z,22.80
2023-05-22T14:20:14.072Z,22.79
2023-05-22T14:22:55.942Z,22.91
2023-05-22T14:25:25.157Z,23.07
2023-05-22T14:27:52.426Z,23.11
2023-05-22T14:30:19.660Z,22.83
2023-05-22T14:32:47.158Z,22.88
2023-05-22T14:35:16.654Z,22.98
2023-05-22T14:37:43.928Z,22.75
2023-05-22T14:40:11.289Z,22.65
2023-05-22T14:42:38.964Z,23.00
2023-05-22T14:45:06.587Z,23.14
2023-05-22T14:47:33.840Z,22.94
2023-05-22T14:50:14.634Z,23.25
2023-05-22T14:52:46.052Z,23.03
2023-05-22T14:55:13.428Z,22.78
2023-05-22T14:57:40.621Z,22.81
2023-05-22T15:00:12.137Z,23.12
2023-05-22T15:02:39.873Z,23.25
2023-05-22T15:05:08.033Z,23.12
2023-05-22T15:07:44.095Z,22.61
2023-05-22T15:10:13.237Z,22.81
2023-05-22T15:12:41.174Z,23.19
2023-05-22T15:15:09.002Z,23.05
2023-05-22T15:17:36.341Z,22.82
2023-05-22T15:20:05.485Z,22.60
2023-05-22T15:22:32.915Z,22.99
2023-05-22T15:25:07.753Z,23.08
2023-05-22T15:27:35.681Z,23.16
2023-05-22T15:30:04.329Z,23.30
2023-05-22T15:32:32.513Z,23.33
2023-05-22T15:34:59.965Z,23.27
2023-05-22T15:37:28.297Z,23.85
2023-05-22T15:39:56.952Z,23.89
2023-05-22T15:42:24.585Z,24.11
2023-05-22T15:44:51.977Z,24.39
2023-05-22T15:47:19.175Z,24.76
2023-05-22T15:49:46.433Z,24.49
2023-05-22T15:52:13.688Z,24.30
2023-05-22T15:54:41.188Z,24.42
2023-05-22T15:57:08.512Z,24.53
2023-05-22T15:59:36.199Z,24.28
2023-05-22T16:02:03.574Z,24.27
2023-05-22T16:04:31.211Z,24.27
2023-05-22T16:06:58.631Z,24.83
2023-05-22T16:09:26.003Z,24.70
2023-05-22T16:11:53.376Z,25.03
2023-05-22T16:14:20.913Z,24.57
2023-05-22T16:16:48.554Z,25.03
2023-05-22T16:19:15.860Z,25.17
2023-05-22T16:21:43.198Z,25.21
2023-05-22T16:24:11.074Z,25.42
2023-05-22T16:26:39.389Z,25.63
2023-05-22T16:29:09.545Z,25.89
2023-05-22T16:31:37.040Z,26.02
2023-05-22T16:34:04.754Z,26.19
2023-05-22T16:36:32.673Z,26.29
2023-05-22T16:38:59.962Z,26.44
2023-05-22T16:41:27.600Z,26.49
2023-05-22T16:43:54.879Z,26.47
2023-05-22T16:46:22.244Z,26.57
2023-05-22T16:48:50.405Z,26.68
2023-05-22T16:51:17.719Z,27.12
2023-05-22T16:53:46.633Z,27.08
2023-05-22T16:56:14.634Z,27.18
2023-05-22T16:58:41.859Z,27.41
2023-05-22T17:01:09.477Z,27.49
2023-05-22T17:03:36.880Z,27.65
2023-05-22T17:06:04.981Z,27.84
2023-05-22T17:08:32.392Z,28.19
2023-05-22T17:10:59.622Z,28.25
2023-05-22T17:13:26.847Z,28.49
2023-05-22T17:15:54.124Z,28.79
2023-05-22T17:18:21.943Z,29.00
2023-05-22T17:20:49.755Z,29.23
2023-05-22T17:23:17.098Z,29.62
2023-05-22T17:25:46.684Z,29.98
2023-05-22T17:28:14.656Z,30.42
2023-05-22T17:30:43.033Z,30.66
2023-05-22T17:33:11.038Z,31.06
2023-05-22T17:35:38.432Z,31.44
2023-05-22T17:38:07.826Z,31.78
2023-05-22T17:40:43.908Z,32.06
2023-05-22T17:43:12.530Z,32.76
2023-05-22T17:45:39.979Z,33.18
2023-05-22T17:48:07.648Z,33.65
2023-05-22T17:50:35.264Z,34.25
2023-05-22T17:53:03.037Z,34.64
2023-05-22T17:55:30.239Z,34.95
2023-05-22T17:57:58.923Z,35.36
2023-05-22T18:00:26.198Z,35.61
2023-05-22T18:02:53.577Z,35.94
2023-05-22T18:05:21.159Z,36.44
2023-05-22T18:07:48.417Z,36.73
2023-05-22T18:10:15.906Z,37.22
2023-05-22T18:12:43.145Z,37.66
2023-05-22T18:15:12.065Z,37.92
2023-05-22T18:17:39.982Z,38.48
2023-05-22T18:20:08.456Z,38.52
2023-05-22T18:22:37.190Z,39.04
2023-05-22T18:25:05.508Z,39.29
2023-05-22T18:27:33.545Z,39.94
2023-05-22T18:30:00.825Z,40.07
2023-05-22T18:32:28.125Z,40.54
2023-05-22T18:34:55.760Z,40.71
2023-05-22T18:37:23.090Z,41.02
2023-05-22T18:39:50.523Z,41.44
2023-05-22T18:42:17.787Z,41.68
2023-05-22T18:44:46.290Z,41.85
2023-05-22T18:47:15.482Z,42.31
2023-05-22T18:49:42.786Z,42.71
2023-05-22T18:52:10.067Z,43.04
2023-05-22T18:54:37.356Z,43.41
2023-05-22T18:57:04.962Z,43.85
2023-05-22T18:59:32.240Z,44.28
2023-05-22T19:01:59.460Z,44.66
2023-05-22T19:04:26.849Z,45.16
2023-05-22T19:06:54.270Z,45.53
2023-05-22T19:09:22.193Z,46.15
2023-05-22T19:11:49.450Z,46.69
2023-05-22T19:14:16.756Z,47.35
2023-05-22T19:16:44.246Z,47.77
2023-05-22T19:19:11.799Z,48.16
2023-05-22T19:21:39.173Z,48.48
2023-05-22T19:24:06.990Z,48.90
2023-05-22T19:26:34.291Z,49.34
2023-05-22T19:29:01.565Z,49.57
2023-05-22T19:31:28.977Z,49.89
2023-05-22T19:33:56.385Z,50.35
2023-05-22T19:36:23.696Z,50.65
2023-05-22T19:38:53.255Z,50.85
2023-05-22T19:41:22.831Z,51.10
2023-05-22T19:43:51.056Z,51.33
2023-05-22T19:46:18.327Z,51.69
2023-05-22T19:48:46.014Z,51.75
2023-05-22T19:51:13.421Z,51.93
2023-05-22T19:53:41.459Z,52.01
2023-05-22T19:56:08.776Z,52.20
2023-05-22T19:58:36.083Z,52.38
2023-05-22T20:01:03.299Z,52.40
2023-05-22T20:03:30.709Z,52.40
2023-05-22T20:05:58.021Z,52.64
2023-05-22T20:08:25.592Z,52.65
2023-05-22T20:10:53.081Z,52.78
2023-05-22T20:13:20.315Z,52.98
2023-05-22T20:15:47.905Z,53.18
2023-05-22T20:18:15.446Z,53.15
2023-05-22T20:20:42.848Z,53.32
2023-05-22T20:23:10.042Z,53.47
2023-05-22T20:25:37.731Z,53.55
2023-05-22T20:28:05.243Z,53.63
2023-05-22T20:30:32.788Z,53.82
2023-05-22T20:33:00.055Z,54.07
2023-05-22T20:35:27.434Z,54.21
2023-05-22T20:37:55.219Z,54.37
2023-05-22T20:40:26.578Z,54.52
2023-05-22T20:42:53.897Z,54.79
2023-05-22T20:45:21.116Z,54.99
2023-05-22T20:47:48.562Z,55.25
2023-05-22T20:50:15.987Z,55.39
2023-05-22T20:52:45.862Z,55.58
2023-05-22T20:55:13.162Z,55.77
2023-05-22T20:57:40.476Z,55.82
2023-05-22T21:00:11.085Z,56.07
2023-05-22T21:02:41.333Z,56.06
2023-05-22T21:05:09.023Z,56.43
2023-05-22T21:07:36.293Z,56.58
2023-05-22T21:10:03.609Z,56.83
2023-05-22T21:12:30.875Z,56.93
2023-05-22T21:14:58.216Z,57.19
2023-05-22T21:17:26.301Z,57.22
2023-05-22T21:19:53.826Z,57.35
2023-05-22T21:22:21.145Z,57.64
2023-05-22T21:24:48.411Z,57.79
2023-05-22T21:27:15.695Z,58.09
2023-05-22T21:29:42.948Z,58.29
2023-05-22T21:32:10.290Z,58.53
2023-05-22T21:34:37.499Z,58.63
2023-05-22T21:37:04.960Z,59.04
2023-05-22T21:39:32.160Z,59.17
2023-05-22T21:41:59.399Z,59.31
2023-05-22T21:44:26.640Z,59.55
2023-05-22T21:46:53.928Z,59.66
2023-05-22T21:49:21.194Z,59.89
2023-05-22T21:51:48.441Z,60.07
2023-05-22T21:54:15.628Z,60.24
2023-05-22T21:56:42.853Z,60.49
2023-05-22T21:59:13.465Z,60.68
2023-05-22T22:01:40.740Z,60.88
2023-05-22T22:04:08.346Z,61.01
2023-05-22T22:06:36.780Z,61.15
2023-05-22T22:09:04.087Z,61.45
2023-05-22T22:11:31.305Z,61.61
2023-05-22T22:13:58.612Z,61.68
2023-05-22T22:16:26.171Z,61.76
2023-05-22T22:18:53.968Z,61.94
2023-05-22T22:21:21.323Z,62.15
2023-05-22T22:23:48.575Z,62.13
2023-05-22T22:26:16.256Z,62.32
2023-05-22T22:28:43.481Z,62.49
2023-05-22T22:31:11.287Z,62.56
2023-05-22T22:33:38.652Z,62.65
2023-05-22T22:36:06.117Z,62.59
2023-05-22T22:38:35.062Z,62.69
2023-05-22T22:41:04.254Z,62.89
2023-05-22T22:43:31.437Z,63.13
2023-05-22T22:45:58.657Z,63.34
2023-05-22T22:48:26.091Z,63.54
2023-05-22T22:50:53.463Z,63.68
2023-05-22T22:53:20.747Z,63.86
2023-05-22T22:55:48.995Z,64.05
2023-05-22T22:58:18.749Z,64.20
2023-05-22T23:00:46.019Z,64.36
2023-05-22T23:03:13.255Z,64.59
2023-05-22T23:05:40.721Z,64.80
2023-05-22T23:08:08.245Z,65.12
2023-05-22T23:10:35.640Z,65.39
2023-05-22T23:13:02.866Z,65.68
2023-05-22T23:15:30.335Z,66.07
2023-05-22T23:17:57.640Z,66.39
2023-05-22T23:20:24.881Z,66.68
2023-05-22T23:22:52.155Z,66.98
2023-05-22T23:25:19.459Z,67.16
2023-05-22T23:27:46.725Z,67.53
2023-05-22T23:30:14.012Z,67.78
2023-05-22T23:32:41.340Z,67.99
2023-05-22T23:35:09.630Z,68.33
2023-05-22T23:37:37.046Z,68.53
2023-05-22T23:40:06.377Z,68.57
2023-05-22T23:42:35.360Z,68.67
2023-05-22T23:45:04.062Z,68.80
2023-05-22T23:47:31.689Z,68.97
2023-05-22T23:49:59.691Z,69.15
2023-05-22T23:52:27.170Z,69.37
2023-05-22T23:54:54.372Z,69.41
2023-05-22T23:57:21.631Z,69.49
2023-05-22T23:59:48.924Z,69.64
